sensor_id;sensor_type;location;lat;lon;timestamp;pressure;altitude;pressure_sealevel;temperature;humidity
41513;BME280;27244;59.940;30.280;2023-08-20T00:01:25;102202.56;;;25.24;50.68
41513;BME280;27244;59.940;30.280;2023-08-20T00:03:54;102206.59;;;25.23;50.82
41513;BME280;27244;59.940;30.280;2023-08-20T00:06:22;102213.84;;;25.24;50.73
41513;BME280;27244;59.940;30.280;2023-08-20T00:08:50;102204.97;;;25.22;50.80
41513;BME280;27244;59.940;30.280;2023-08-20T00:11:18;102215.44;;;25.25;50.83
41513;BME280;27244;59.940;30.280;2023-08-20T00:13:45;102205.78;;;25.23;50.95
41513;BME280;27244;59.940;30.280;2023-08-20T00:16:13;102211.44;;;25.23;51.10
41513;BME280;27244;59.940;30.280;2023-08-20T00:18:41;102211.84;;;25.25;50.98
41513;BME280;27244;59.940;30.280;2023-08-20T00:21:08;102202.97;;;25.23;50.83
41513;BME280;27244;59.940;30.280;2023-08-20T00:23:36;102200.53;;;25.25;50.97
41513;BME280;27244;59.940;30.280;2023-08-20T00:26:04;102198.53;;;25.22;50.87
41513;BME280;27244;59.940;30.280;2023-08-20T00:28:32;102204.94;;;25.26;50.94
41513;BME280;27244;59.940;30.280;2023-08-20T00:31:00;102209.00;;;25.25;50.94
41513;BME280;27244;59.940;30.280;2023-08-20T00:33:28;102201.75;;;25.24;50.58
41513;BME280;27244;59.940;30.280;2023-08-20T00:35:55;102193.28;;;25.24;51.00
41513;BME280;27244;59.940;30.280;2023-08-20T00:38:22;102198.13;;;25.23;50.89
41513;BME280;27244;59.940;30.280;2023-08-20T00:40:49;102194.50;;;25.23;50.55
41513;BME280;27244;59.940;30.280;2023-08-20T00:43:16;102192.06;;;25.25;50.55
41513;BME280;27244;59.940;30.280;2023-08-20T00:45:44;102196.50;;;25.22;50.66
41513;BME280;27244;59.940;30.280;2023-08-20T00:48:12;102201.75;;;25.24;50.81
41513;BME280;27244;59.940;30.280;2023-08-20T00:50:40;102195.28;;;25.23;50.82
41513;BME280;27244;59.940;30.280;2023-08-20T00:53:08;102190.44;;;25.24;50.88
41513;BME280;27244;59.940;30.280;2023-08-20T00:55:36;102186.81;;;25.23;50.86
41513;BME280;27244;59.940;30.280;2023-08-20T00:58:04;102186.81;;;25.23;50.65
41513;BME280;27244;59.940;30.280;2023-08-20T01:00:32;102179.16;;;25.24;50.48
41513;BME280;27244;59.940;30.280;2023-08-20T01:03:01;102185.97;;;25.26;50.59
41513;BME280;27244;59.940;30.280;2023-08-20T01:05:32;102185.56;;;25.28;50.89
41513;BME280;27244;59.940;30.280;2023-08-20T01:08:12;102176.25;;;25.31;50.68
41513;BME280;27244;59.940;30.280;2023-08-20T01:10:47;102168.22;;;25.26;50.39
41513;BME280;27244;59.940;30.280;2023-08-20T01:13:18;102174.34;;;25.21;50.42
41513;BME280;27244;59.940;30.280;2023-08-20T01:15:45;102179.16;;;25.24;50.32
41513;BME280;27244;59.940;30.280;2023-08-20T01:18:14;102175.13;;;25.25;50.52
41513;BME280;27244;59.940;30.280;2023-08-20T01:20:45;102171.00;;;25.29;50.43
41513;BME280;27244;59.940;30.280;2023-08-20T01:23:39;102172.13;;;25.39;50.68
41513;BME280;27244;59.940;30.280;2023-08-20T01:26:21;102171.34;;;25.35;50.84
41513;BME280;27244;59.940;30.280;2023-08-20T01:28:55;102170.19;;;25.29;51.09
41513;BME280;27244;59.940;30.280;2023-08-20T01:31:24;102165.44;;;25.22;50.88
41513;BME280;27244;59.940;30.280;2023-08-20T01:33:52;102175.91;;;25.25;50.85
41513;BME280;27244;59.940;30.280;2023-08-20T01:36:20;102170.25;;;25.25;50.92
41513;BME280;27244;59.940;30.280;2023-08-20T01:38:48;102177.13;;;25.24;51.10
41513;BME280;27244;59.940;30.280;2023-08-20T01:41:17;102177.13;;;25.24;50.79
41513;BME280;27244;59.940;30.280;2023-08-20T01:43:44;102171.91;;;25.23;50.82
41513;BME280;27244;59.940;30.280;2023-08-20T01:46:12;102162.22;;;25.24;50.55
41513;BME280;27244;59.940;30.280;2023-08-20T01:48:39;102167.47;;;25.22;50.77
41513;BME280;27244;59.940;30.280;2023-08-20T01:51:06;102171.91;;;25.23;50.83
41513;BME280;27244;59.940;30.280;2023-08-20T01:53:34;102162.63;;;25.22;50.49
41513;BME280;27244;59.940;30.280;2023-08-20T01:56:01;102181.59;;;25.22;50.73
41513;BME280;27244;59.940;30.280;2023-08-20T01:58:28;102185.22;;;25.22;50.70
41513;BME280;27244;59.940;30.280;2023-08-20T02:00:57;102177.53;;;25.23;50.83
41513;BME280;27244;59.940;30.280;2023-08-20T02:03:25;102180.38;;;25.23;50.75
41513;BME280;27244;59.940;30.280;2023-08-20T02:05:53;102183.19;;;25.23;50.85
41513;BME280;27244;59.940;30.280;2023-08-20T02:08:20;102182.38;;;25.22;50.68
41513;BME280;27244;59.940;30.280;2023-08-20T02:10:47;102188.06;;;25.19;50.75
41513;BME280;27244;59.940;30.280;2023-08-20T02:13:14;102190.88;;;25.22;50.73
41513;BME280;27244;59.940;30.280;2023-08-20T02:15:41;102192.88;;;25.22;50.89
41513;BME280;27244;59.940;30.280;2023-08-20T02:18:08;102192.09;;;25.21;50.47
41513;BME280;27244;59.940;30.280;2023-08-20T02:20:36;102190.50;;;25.20;50.71
41513;BME280;27244;59.940;30.280;2023-08-20T02:23:04;102185.66;;;25.21;50.74
41513;BME280;27244;59.940;30.280;2023-08-20T02:25:31;102191.31;;;25.21;50.63
41513;BME280;27244;59.940;30.280;2023-08-20T02:27:59;102189.69;;;25.20;50.63
41513;BME280;27244;59.940;30.280;2023-08-20T02:30:26;102183.22;;;25.19;50.31
41513;BME280;27244;59.940;30.280;2023-08-20T02:32:53;102187.66;;;25.20;50.23
41513;BME280;27244;59.940;30.280;2023-08-20T02:35:20;102195.34;;;25.20;50.65
41513;BME280;27244;59.940;30.280;2023-08-20T02:37:51;102185.66;;;25.21;50.50
41513;BME280;27244;59.940;30.280;2023-08-20T02:40:18;102197.75;;;25.18;49.94
41513;BME280;27244;59.940;30.280;2023-08-20T02:42:45;102190.53;;;25.17;50.28
41513;BME280;27244;59.940;30.280;2023-08-20T02:45:12;102197.75;;;25.18;50.03
41513;BME280;27244;59.940;30.280;2023-08-20T02:47:40;102192.13;;;25.18;50.27
41513;BME280;27244;59.940;30.280;2023-08-20T02:50:07;102189.28;;;25.18;50.05
41513;BME280;27244;59.940;30.280;2023-08-20T02:52:35;102188.94;;;25.16;50.19
41513;BME280;27244;59.940;30.280;2023-08-20T02:55:04;102189.69;;;25.20;50.22
41513;BME280;27244;59.940;30.280;2023-08-20T02:57:31;102199.38;;;25.19;50.00
41513;BME280;27244;59.940;30.280;2023-08-20T02:59:58;102190.53;;;25.17;50.37
41513;BME280;27244;59.940;30.280;2023-08-20T03:02:25;102186.91;;;25.16;50.20
41513;BME280;27244;59.940;30.280;2023-08-20T03:04:53;102184.88;;;25.17;50.12
41513;BME280;27244;59.940;30.280;2023-08-20T03:07:21;102180.81;;;25.18;49.67
41513;BME280;27244;59.940;30.280;2023-08-20T03:09:48;102171.97;;;25.16;50.08
41513;BME280;27244;59.940;30.280;2023-08-20T03:12:17;102180.44;;;25.16;49.69
41513;BME280;27244;59.940;30.280;2023-08-20T03:14:44;102177.63;;;25.16;49.55
41513;BME280;27244;59.940;30.280;2023-08-20T03:17:11;102178.84;;;25.15;49.92
41513;BME280;27244;59.940;30.280;2023-08-20T03:19:53;102164.63;;;25.22;49.50
41513;BME280;27244;59.940;30.280;2023-08-20T03:22:21;102178.44;;;25.16;49.63
41513;BME280;27244;59.940;30.280;2023-08-20T03:24:48;102179.66;;;25.15;49.56
41513;BME280;27244;59.940;30.280;2023-08-20T03:27:17;102175.16;;;25.18;49.68
41513;BME280;27244;59.940;30.280;2023-08-20T03:29:44;102176.81;;;25.15;49.68
41513;BME280;27244;59.940;30.280;2023-08-20T03:32:12;102176.00;;;25.15;49.88
41513;BME280;27244;59.940;30.280;2023-08-20T03:34:39;102180.09;;;25.14;49.58
41513;BME280;27244;59.940;30.280;2023-08-20T03:37:06;102173.19;;;25.15;49.83
41513;BME280;27244;59.940;30.280;2023-08-20T03:39:34;102167.97;;;25.13;49.74
41513;BME280;27244;59.940;30.280;2023-08-20T03:42:01;102164.75;;;25.11;49.42
41513;BME280;27244;59.940;30.280;2023-08-20T03:44:30;102171.97;;;25.16;49.63
41513;BME280;27244;59.940;30.280;2023-08-20T03:46:58;102169.59;;;25.11;49.47
41513;BME280;27244;59.940;30.280;2023-08-20T03:49:26;102168.78;;;25.14;49.58
41513;BME280;27244;59.940;30.280;2023-08-20T03:51:53;102163.16;;;25.14;49.55
41513;BME280;27244;59.940;30.280;2023-08-20T03:54:20;102163.56;;;25.12;49.29
41513;BME280;27244;59.940;30.280;2023-08-20T03:56:47;102167.19;;;25.13;49.55
41513;BME280;27244;59.940;30.280;2023-08-20T03:59:14;102161.53;;;25.13;49.61
41513;BME280;27244;59.940;30.280;2023-08-20T04:01:42;102163.97;;;25.11;49.49
41513;BME280;27244;59.940;30.280;2023-08-20T04:04:09;102163.16;;;25.14;49.39
41513;BME280;27244;59.940;30.280;2023-08-20T04:06:36;102170.00;;;25.13;49.31
41513;BME280;27244;59.940;30.280;2023-08-20T04:09:04;102172.03;;;25.12;49.29
41513;BME280;27244;59.940;30.280;2023-08-20T04:11:31;102182.50;;;25.12;49.33
41513;BME280;27244;59.940;30.280;2023-08-20T04:13:58;102186.94;;;25.13;49.33
41513;BME280;27244;59.940;30.280;2023-08-20T04:16:25;102181.69;;;25.11;48.99
41513;BME280;27244;59.940;30.280;2023-08-20T04:18:54;102189.78;;;25.13;49.32
41513;BME280;27244;59.940;30.280;2023-08-20T04:21:22;102179.31;;;25.10;49.08
41513;BME280;27244;59.940;30.280;2023-08-20T04:23:49;102193.00;;;25.11;49.12
41513;BME280;27244;59.940;30.280;2023-08-20T04:26:16;102188.59;;;25.10;48.71
41513;BME280;27244;59.940;30.280;2023-08-20T04:28:43;102197.84;;;25.11;48.69
41513;BME280;27244;59.940;30.280;2023-08-20T04:31:11;102189.41;;;25.07;48.84
41513;BME280;27244;59.940;30.280;2023-08-20T04:34:05;102189.38;;;25.11;48.89
41513;BME280;27244;59.940;30.280;2023-08-20T04:36:48;102204.28;;;25.11;48.63
41513;BME280;27244;59.940;30.280;2023-08-20T04:39:15;102202.72;;;25.10;48.85
41513;BME280;27244;59.940;30.280;2023-08-20T04:41:47;102201.91;;;25.10;48.62
41513;BME280;27244;59.940;30.280;2023-08-20T04:44:16;102209.56;;;25.09;48.62
41513;BME280;27244;59.940;30.280;2023-08-20T04:46:44;102199.94;;;25.07;48.55
41513;BME280;27244;59.940;30.280;2023-08-20T04:49:13;102205.94;;;25.09;48.73
41513;BME280;27244;59.940;30.280;2023-08-20T04:51:40;102213.19;;;25.10;48.44
41513;BME280;27244;59.940;30.280;2023-08-20T04:54:07;102220.06;;;25.09;48.36
41513;BME280;27244;59.940;30.280;2023-08-20T04:56:34;102224.91;;;25.08;48.38
41513;BME280;27244;59.940;30.280;2023-08-20T04:59:01;102225.34;;;25.07;48.43
41513;BME280;27244;59.940;30.280;2023-08-20T05:01:47;102214.81;;;25.07;48.50
41513;BME280;27244;59.940;30.280;2023-08-20T05:04:18;102205.19;;;25.05;48.76
41513;BME280;27244;59.940;30.280;2023-08-20T05:06:45;102215.66;;;25.04;48.18
41513;BME280;27244;59.940;30.280;2023-08-20T05:09:12;102219.69;;;25.07;48.28
41513;BME280;27244;59.940;30.280;2023-08-20T05:11:40;102220.47;;;25.07;48.54
41513;BME280;27244;59.940;30.280;2023-08-20T05:14:07;102207.16;;;25.08;48.21
41513;BME280;27244;59.940;30.280;2023-08-20T05:16:34;102209.97;;;25.08;48.17
41513;BME280;27244;59.940;30.280;2023-08-20T05:19:01;102217.66;;;25.07;48.26
41513;BME280;27244;59.940;30.280;2023-08-20T05:21:30;102220.88;;;25.09;48.29
41513;BME280;27244;59.940;30.280;2023-08-20T05:23:58;102209.59;;;25.06;48.29
41513;BME280;27244;59.940;30.280;2023-08-20T05:26:25;102211.63;;;25.05;48.23
41513;BME280;27244;59.940;30.280;2023-08-20T05:28:53;102205.56;;;25.07;48.25
41513;BME280;27244;59.940;30.280;2023-08-20T05:31:20;102205.56;;;25.07;47.89
41513;BME280;27244;59.940;30.280;2023-08-20T05:33:47;102205.97;;;25.05;47.90
41513;BME280;27244;59.940;30.280;2023-08-20T05:36:14;102206.78;;;25.06;48.01
41513;BME280;27244;59.940;30.280;2023-08-20T05:38:45;102209.19;;;25.07;48.10
41513;BME280;27244;59.940;30.280;2023-08-20T05:41:12;102212.44;;;25.06;47.74
41513;BME280;27244;59.940;30.280;2023-08-20T05:43:39;102212.84;;;25.04;47.50
41513;BME280;27244;59.940;30.280;2023-08-20T05:46:07;102207.22;;;25.01;48.06
41513;BME280;27244;59.940;30.280;2023-08-20T05:48:34;102202.03;;;24.99;47.76
41513;BME280;27244;59.940;30.280;2023-08-20T05:51:02;102206.03;;;25.02;47.80
41513;BME280;27244;59.940;30.280;2023-08-20T05:53:29;102209.22;;;25.04;47.83
41513;BME280;27244;59.940;30.280;2023-08-20T05:55:58;102204.00;;;25.02;47.54
41513;BME280;27244;59.940;30.280;2023-08-20T05:58:26;102210.06;;;25.01;48.06
41513;BME280;27244;59.940;30.280;2023-08-20T06:00:53;102187.50;;;24.97;47.69
41513;BME280;27244;59.940;30.280;2023-08-20T06:03:21;102207.22;;;25.01;47.70
41513;BME280;27244;59.940;30.280;2023-08-20T06:05:48;102193.13;;;25.01;47.62
41513;BME280;27244;59.940;30.280;2023-08-20T06:08:15;102201.97;;;25.03;47.49
41513;BME280;27244;59.940;30.280;2023-08-20T06:10:42;102194.31;;;25.03;47.72
41513;BME280;27244;59.940;30.280;2023-08-20T06:13:11;102196.34;;;25.03;47.74
41513;BME280;27244;59.940;30.280;2023-08-20T06:15:38;102205.59;;;25.03;47.21
41513;BME280;27244;59.940;30.280;2023-08-20T06:18:05;102199.56;;;25.01;47.60
41513;BME280;27244;59.940;30.280;2023-08-20T06:20:32;102204.00;;;25.02;47.25
41513;BME280;27244;59.940;30.280;2023-08-20T06:22:59;102199.56;;;25.01;47.24
41513;BME280;27244;59.940;30.280;2023-08-20T06:25:26;102192.31;;;25.00;47.57
41513;BME280;27244;59.940;30.280;2023-08-20T06:27:53;102196.34;;;25.03;47.21
41513;BME280;27244;59.940;30.280;2023-08-20T06:30:22;102190.69;;;25.03;47.36
41513;BME280;27244;59.940;30.280;2023-08-20T06:32:49;102184.25;;;25.02;47.14
41513;BME280;27244;59.940;30.280;2023-08-20T06:35:16;102179.41;;;25.03;47.27
41513;BME280;27244;59.940;30.280;2023-08-20T06:37:43;102182.25;;;24.99;47.12
41513;BME280;27244;59.940;30.280;2023-08-20T06:40:11;102189.06;;;25.02;47.25
41513;BME280;27244;59.940;30.280;2023-08-20T06:42:39;102188.72;;;25.00;47.18
41513;BME280;27244;59.940;30.280;2023-08-20T06:45:07;102193.13;;;25.01;47.23
41513;BME280;27244;59.940;30.280;2023-08-20T06:47:36;102184.66;;;25.01;47.37
41513;BME280;27244;59.940;30.280;2023-08-20T06:50:04;102184.66;;;25.01;47.23
41513;BME280;27244;59.940;30.280;2023-08-20T06:52:32;102187.47;;;25.01;46.93
41513;BME280;27244;59.940;30.280;2023-08-20T06:54:59;102191.94;;;24.98;46.81
41513;BME280;27244;59.940;30.280;2023-08-20T06:57:26;102191.53;;;25.00;46.97
41513;BME280;27244;59.940;30.280;2023-08-20T06:59:53;102192.31;;;25.00;46.72
41513;BME280;27244;59.940;30.280;2023-08-20T07:02:20;102209.25;;;25.00;46.66
41513;BME280;27244;59.940;30.280;2023-08-20T07:04:48;102188.72;;;25.00;46.83
41513;BME280;27244;59.940;30.280;2023-08-20T07:07:15;102190.75;;;24.95;46.76
41513;BME280;27244;59.940;30.280;2023-08-20T07:09:43;102193.56;;;24.99;47.00
41513;BME280;27244;59.940;30.280;2023-08-20T07:12:10;102192.75;;;24.98;47.21
41513;BME280;27244;59.940;30.280;2023-08-20T07:14:46;102194.66;;;25.09;46.62
41513;BME280;27244;59.940;30.280;2023-08-20T07:17:13;102197.19;;;25.00;46.74
41513;BME280;27244;59.940;30.280;2023-08-20T07:19:40;102198.38;;;24.98;46.74
41513;BME280;27244;59.940;30.280;2023-08-20T07:22:08;102186.69;;;24.96;46.76
41513;BME280;27244;59.940;30.280;2023-08-20T07:24:35;102189.91;;;24.98;46.65
41513;BME280;27244;59.940;30.280;2023-08-20T07:27:03;102191.13;;;24.97;46.58
41513;BME280;27244;59.940;30.280;2023-08-20T07:29:36;102184.28;;;24.98;46.48
41513;BME280;27244;59.940;30.280;2023-08-20T07:32:03;102193.97;;;24.97;46.63
41513;BME280;27244;59.940;30.280;2023-08-20T07:34:30;102200.81;;;24.96;46.25
41513;BME280;27244;59.940;30.280;2023-08-20T07:36:59;102190.75;;;24.95;46.11
41513;BME280;27244;59.940;30.280;2023-08-20T07:39:28;102189.53;;;24.96;45.97
41513;BME280;27244;59.940;30.280;2023-08-20T07:41:55;102187.94;;;24.95;46.28
41513;BME280;27244;59.940;30.280;2023-08-20T07:44:22;102188.72;;;24.96;46.67
41513;BME280;27244;59.940;30.280;2023-08-20T07:46:49;102189.53;;;24.96;46.44
41513;BME280;27244;59.940;30.280;2023-08-20T07:49:16;102196.44;;;24.92;45.59
41513;BME280;27244;59.940;30.280;2023-08-20T07:51:43;102199.63;;;24.94;45.97
41513;BME280;27244;59.940;30.280;2023-08-20T07:54:10;102183.50;;;24.94;45.85
41513;BME280;27244;59.940;30.280;2023-08-20T07:56:39;102191.53;;;24.96;45.86
41513;BME280;27244;59.940;30.280;2023-08-20T07:59:06;102189.53;;;24.96;45.96
41513;BME280;27244;59.940;30.280;2023-08-20T08:01:33;102194.38;;;24.96;46.17
41513;BME280;27244;59.940;30.280;2023-08-20T08:04:00;102193.97;;;24.97;46.16
41513;BME280;27244;59.940;30.280;2023-08-20T08:06:27;102193.97;;;24.97;46.17
41513;BME280;27244;59.940;30.280;2023-08-20T08:08:54;102190.72;;;24.99;46.34
41513;BME280;27244;59.940;30.280;2023-08-20T08:11:21;102197.94;;;25.00;46.20
41513;BME280;27244;59.940;30.280;2023-08-20T08:13:51;102204.41;;;25.01;46.38
41513;BME280;27244;59.940;30.280;2023-08-20T08:16:18;102204.41;;;25.01;46.18
41513;BME280;27244;59.940;30.280;2023-08-20T08:18:45;102188.31;;;24.97;46.24
41513;BME280;27244;59.940;30.280;2023-08-20T08:21:12;102184.28;;;24.98;45.67
41513;BME280;27244;59.940;30.280;2023-08-20T08:23:39;102180.25;;;25.00;45.70
41513;BME280;27244;59.940;30.280;2023-08-20T08:26:06;102187.50;;;24.97;46.14
41513;BME280;27244;59.940;30.280;2023-08-20T08:28:33;102186.28;;;24.98;46.11
41513;BME280;27244;59.940;30.280;2023-08-20T08:31:02;102183.06;;;25.00;46.25
41513;BME280;27244;59.940;30.280;2023-08-20T08:33:29;102176.63;;;24.99;46.29
41513;BME280;27244;59.940;30.280;2023-08-20T08:35:56;102177.41;;;25.00;46.14
41513;BME280;27244;59.940;30.280;2023-08-20T08:38:23;102182.63;;;25.01;45.99
41513;BME280;27244;59.940;30.280;2023-08-20T08:40:50;102182.66;;;24.97;45.34
41513;BME280;27244;59.940;30.280;2023-08-20T08:43:18;102188.31;;;24.97;45.42
41513;BME280;27244;59.940;30.280;2023-08-20T08:45:46;102183.47;;;24.98;45.72
41513;BME280;27244;59.940;30.280;2023-08-20T08:48:16;102180.25;;;25.00;46.02
41513;BME280;27244;59.940;30.280;2023-08-20T08:50:45;102172.19;;;24.98;46.29
41513;BME280;27244;59.940;30.280;2023-08-20T08:53:13;102173.78;;;24.99;46.07
41513;BME280;27244;59.940;30.280;2023-08-20T08:55:40;102173.81;;;24.95;45.07
41513;BME280;27244;59.940;30.280;2023-08-20T08:58:07;102170.56;;;24.97;46.13
41513;BME280;27244;59.940;30.280;2023-08-20T09:00:34;102163.75;;;24.94;45.83
41513;BME280;27244;59.940;30.280;2023-08-20T09:03:01;102169.75;;;24.96;45.83
41513;BME280;27244;59.940;30.280;2023-08-20T09:05:30;102159.28;;;24.97;45.87
41513;BME280;27244;59.940;30.280;2023-08-20T09:07:57;102165.72;;;24.97;45.44
41513;BME280;27244;59.940;30.280;2023-08-20T09:10:26;102165.31;;;24.99;44.91
41513;BME280;27244;59.940;30.280;2023-08-20T09:12:54;102156.44;;;24.97;44.99
41513;BME280;27244;59.940;30.280;2023-08-20T09:15:31;102153.53;;;25.04;44.82
41513;BME280;27244;59.940;30.280;2023-08-20T09:18:01;102151.59;;;24.97;45.11
41513;BME280;27244;59.940;30.280;2023-08-20T09:20:39;102150.31;;;25.06;45.01
41513;BME280;27244;59.940;30.280;2023-08-20T09:23:11;102154.41;;;25.01;45.14
41513;BME280;27244;59.940;30.280;2023-08-20T09:25:38;102155.25;;;24.98;44.53
41513;BME280;27244;59.940;30.280;2023-08-20T09:28:09;102154.06;;;24.95;44.56
41513;BME280;27244;59.940;30.280;2023-08-20T09:30:36;102152.81;;;24.96;45.13
41513;BME280;27244;59.940;30.280;2023-08-20T09:33:07;102144.38;;;24.93;44.77
41513;BME280;27244;59.940;30.280;2023-08-20T09:35:34;102152.81;;;24.96;45.10
41513;BME280;27244;59.940;30.280;2023-08-20T09:38:03;102156.03;;;24.98;45.05
41513;BME280;27244;59.940;30.280;2023-08-20T09:40:31;102140.72;;;24.96;44.73
41513;BME280;27244;59.940;30.280;2023-08-20T09:43:00;102138.31;;;24.98;45.03
41513;BME280;27244;59.940;30.280;2023-08-20T09:45:28;102140.31;;;24.97;44.66
41513;BME280;27244;59.940;30.280;2023-08-20T09:47:57;102134.66;;;24.97;44.81
41513;BME280;27244;59.940;30.280;2023-08-20T09:50:26;102143.94;;;24.98;44.77
41513;BME280;27244;59.940;30.280;2023-08-20T09:52:57;102133.47;;;24.98;44.85
41513;BME280;27244;59.940;30.280;2023-08-20T09:55:30;102130.59;;;25.02;44.69
41513;BME280;27244;59.940;30.280;2023-08-20T09:58:01;102141.53;;;24.96;44.82
41513;BME280;27244;59.940;30.280;2023-08-20T10:00:28;102148.41;;;24.95;44.83
41513;BME280;27244;59.940;30.280;2023-08-20T10:02:57;102134.31;;;24.95;44.37
41513;BME280;27244;59.940;30.280;2023-08-20T10:05:25;102131.47;;;24.95;44.86
41513;BME280;27244;59.940;30.280;2023-08-20T10:07:54;102123.00;;;24.95;44.42
41513;BME280;27244;59.940;30.280;2023-08-20T10:10:22;102131.09;;;24.93;44.63
41513;BME280;27244;59.940;30.280;2023-08-20T10:12:50;102131.47;;;24.95;44.72
41513;BME280;27244;59.940;30.280;2023-08-20T10:15:18;102131.09;;;24.93;44.54
41513;BME280;27244;59.940;30.280;2023-08-20T10:17:45;102138.34;;;24.94;44.58
41513;BME280;27244;59.940;30.280;2023-08-20T10:20:13;102123.09;;;24.88;44.33
41513;BME280;27244;59.940;30.280;2023-08-20T10:22:43;102136.72;;;24.93;44.28
41513;BME280;27244;59.940;30.280;2023-08-20T10:25:11;102139.94;;;24.95;44.18
41513;BME280;27244;59.940;30.280;2023-08-20T10:27:40;102127.50;;;24.89;44.13
41513;BME280;27244;59.940;30.280;2023-08-20T10:30:10;102130.28;;;24.93;44.42
41513;BME280;27244;59.940;30.280;2023-08-20T10:32:47;102131.00;;;25.01;44.02
41513;BME280;27244;59.940;30.280;2023-08-20T10:35:16;102127.06;;;24.94;43.76
41513;BME280;27244;59.940;30.280;2023-08-20T10:38:05;102133.75;;;25.08;44.03
41513;BME280;27244;59.940;30.280;2023-08-20T10:40:51;102128.09;;;25.08;43.62
41513;BME280;27244;59.940;30.280;2023-08-20T10:43:32;102123.28;;;25.05;43.88
41513;BME280;27244;59.940;30.280;2023-08-20T10:46:04;102129.41;;;25.00;43.88
41513;BME280;27244;59.940;30.280;2023-08-20T10:48:32;102115.78;;;24.91;43.73
41513;BME280;27244;59.940;30.280;2023-08-20T10:51:09;102127.81;;;24.98;44.08
41513;BME280;27244;59.940;30.280;2023-08-20T10:53:37;102112.97;;;24.91;43.59
41513;BME280;27244;59.940;30.280;2023-08-20T10:56:11;102128.22;;;24.97;43.78
41513;BME280;27244;59.940;30.280;2023-08-20T10:58:40;102111.75;;;24.92;43.60
41513;BME280;27244;59.940;30.280;2023-08-20T11:01:22;102117.69;;;25.01;44.08
41513;BME280;27244;59.940;30.280;2023-08-20T11:03:50;102122.25;;;24.91;43.55
41513;BME280;27244;59.940;30.280;2023-08-20T11:06:18;102106.16;;;24.88;43.75
41513;BME280;27244;59.940;30.280;2023-08-20T11:08:45;102116.16;;;24.93;43.91
41513;BME280;27244;59.940;30.280;2023-08-20T11:11:12;102115.34;;;24.92;43.93
41513;BME280;27244;59.940;30.280;2023-08-20T11:13:39;102111.75;;;24.92;43.98
41513;BME280;27244;59.940;30.280;2023-08-20T11:16:08;102107.69;;;24.93;43.80
41513;BME280;27244;59.940;30.280;2023-08-20T11:18:37;102105.28;;;24.95;44.06
41513;BME280;27244;59.940;30.280;2023-08-20T11:21:04;102101.25;;;24.92;43.79
41513;BME280;27244;59.940;30.280;2023-08-20T11:23:31;102104.06;;;24.92;44.24
41513;BME280;27244;59.940;30.280;2023-08-20T11:25:59;102104.06;;;24.92;43.77
41513;BME280;27244;59.940;30.280;2023-08-20T11:28:27;102098.47;;;24.89;43.75
41513;BME280;27244;59.940;30.280;2023-08-20T11:30:55;102101.25;;;24.92;44.03
41513;BME280;27244;59.940;30.280;2023-08-20T11:33:23;102100.47;;;24.92;44.05
41513;BME280;27244;59.940;30.280;2023-08-20T11:35:53;102101.66;;;24.94;43.99
41513;BME280;27244;59.940;30.280;2023-08-20T11:38:22;102087.13;;;24.92;43.91
41513;BME280;27244;59.940;30.280;2023-08-20T11:40:48;102089.19;;;24.92;43.48
41513;BME280;27244;59.940;30.280;2023-08-20T11:43:16;102092.00;;;24.92;43.59
41513;BME280;27244;59.940;30.280;2023-08-20T11:45:47;102083.94;;;24.90;43.67
41513;BME280;27244;59.940;30.280;2023-08-20T11:48:15;102086.34;;;24.92;43.91
41513;BME280;27244;59.940;30.280;2023-08-20T11:50:43;102089.94;;;24.92;43.86
41513;BME280;27244;59.940;30.280;2023-08-20T11:53:12;102078.28;;;24.90;43.56
41513;BME280;27244;59.940;30.280;2023-08-20T11:55:40;102080.31;;;24.90;43.25
41513;BME280;27244;59.940;30.280;2023-08-20T11:58:11;102080.28;;;24.93;43.38
41513;BME280;27244;59.940;30.280;2023-08-20T12:00:42;102072.31;;;24.85;43.57
41513;BME280;27244;59.940;30.280;2023-08-20T12:03:11;102069.47;;;24.88;43.18
41513;BME280;27244;59.940;30.280;2023-08-20T12:05:41;102076.22;;;24.94;43.47
41513;BME280;27244;59.940;30.280;2023-08-20T12:08:16;102078.22;;;24.97;43.00
41513;BME280;27244;59.940;30.280;2023-08-20T12:10:45;102070.63;;;24.91;43.01
41513;BME280;27244;59.940;30.280;2023-08-20T12:13:12;102069.81;;;24.90;43.13
41513;BME280;27244;59.940;30.280;2023-08-20T12:15:39;102070.63;;;24.91;43.43
41513;BME280;27244;59.940;30.280;2023-08-20T12:18:07;102070.63;;;24.91;42.84
41513;BME280;27244;59.940;30.280;2023-08-20T12:20:35;102068.63;;;24.91;42.95
41513;BME280;27244;59.940;30.280;2023-08-20T12:23:05;102068.63;;;24.91;43.29
41513;BME280;27244;59.940;30.280;2023-08-20T12:25:35;102076.22;;;24.94;42.82
41513;BME280;27244;59.940;30.280;2023-08-20T12:28:02;102078.66;;;24.92;43.09
41513;BME280;27244;59.940;30.280;2023-08-20T12:30:30;102069.81;;;24.90;42.72
41513;BME280;27244;59.940;30.280;2023-08-20T12:32:57;102076.28;;;24.91;43.13
41513;BME280;27244;59.940;30.280;2023-08-20T12:35:24;102077.09;;;24.91;42.68
41513;BME280;27244;59.940;30.280;2023-08-20T12:37:51;102069.81;;;24.90;43.08
41513;BME280;27244;59.940;30.280;2023-08-20T12:40:18;102073.06;;;24.89;42.59
41513;BME280;27244;59.940;30.280;2023-08-20T12:42:47;102067.38;;;24.92;43.41
41513;BME280;27244;59.940;30.280;2023-08-20T12:45:14;102068.63;;;24.91;42.98
41513;BME280;27244;59.940;30.280;2023-08-20T12:47:41;102067.38;;;24.92;43.38